createdAt,value
2024-01-24T00:00:21.409Z,96379.69
2024-01-24T00:02:50.371Z,96385.41
2024-01-24T00:05:17.871Z,96375.97
2024-01-24T00:07:44.859Z,96372.13
2024-01-24T00:10:12.445Z,96365.38
2024-01-24T00:12:39.518Z,96362.41
2024-01-24T00:15:07.034Z,96342.84
2024-01-24T00:17:34.052Z,96344.09
2024-01-24T00:20:01.101Z,96329.66
2024-01-24T00:22:28.880Z,96339.47
2024-01-24T00:24:55.898Z,96336.00
2024-01-24T00:27:22.991Z,96329.66
2024-01-24T00:29:50.056Z,96332.31
2024-01-24T00:32:17.177Z,96320.13
2024-01-24T00:34:44.838Z,96323.41
2024-01-24T00:37:11.838Z,96317.16
2024-01-24T00:39:39.056Z,96316.44
2024-01-24T00:42:06.759Z,96311.31
2024-01-24T00:44:33.817Z,96309.47
2024-01-24T00:47:00.729Z,96304.56
2024-01-24T00:49:28.377Z,96301.50
2024-01-24T00:51:55.397Z,96270.25
2024-01-24T00:54:22.477Z,96301.91
2024-01-24T00:56:49.391Z,96298.63
2024-01-24T00:59:16.458Z,96292.91
2024-01-24T01:01:43.413Z,96303.75
2024-01-24T01:04:10.466Z,96285.94
2024-01-24T01:06:37.573Z,96285.50
2024-01-24T01:09:04.549Z,96298.09
2024-01-24T01:11:31.498Z,96292.25
2024-01-24T01:13:58.705Z,96283.88
2024-01-24T01:16:25.624Z,96276.28
2024-01-24T01:18:52.744Z,96283.66
2024-01-24T01:21:19.717Z,96279.50
2024-01-24T01:23:46.657Z,96275.19
2024-01-24T01:26:14.247Z,96286.13
2024-01-24T01:28:41.274Z,96278.50
2024-01-24T01:31:08.208Z,96271.34
2024-01-24T01:33:35.278Z,96266.06
2024-01-24T01:36:09.021Z,96267.09
2024-01-24T01:38:44.693Z,96261.63
2024-01-24T01:41:11.699Z,96258.53
2024-01-24T01:43:38.719Z,96255.84
2024-01-24T01:46:08.399Z,96256.19
2024-01-24T01:48:35.894Z,96252.53
2024-01-24T01:51:03.154Z,96238.09
2024-01-24T01:53:30.482Z,96223.31
2024-01-24T01:55:58.381Z,96216.56
2024-01-24T01:58:25.369Z,96208.97
2024-01-24T02:00:52.490Z,96198.50
2024-01-24T02:03:19.530Z,96182.19
2024-01-24T02:05:46.712Z,96175.41
2024-01-24T02:08:14.003Z,96173.69
2024-01-24T02:10:41.001Z,96167.72
2024-01-24T02:13:07.960Z,96155.50
2024-01-24T02:15:34.942Z,96161.47
2024-01-24T02:18:01.944Z,96156.22
2024-01-24T02:20:31.116Z,96154.91
2024-01-24T02:22:58.281Z,96154.00
2024-01-24T02:25:25.349Z,96150.25
2024-01-24T02:27:52.325Z,96144.41
2024-01-24T02:30:19.369Z,96109.03
2024-01-24T02:32:47.072Z,96137.94
2024-01-24T02:35:14.064Z,96138.63
2024-01-24T02:37:41.519Z,96116.63
2024-01-24T02:40:09.234Z,96110.94
2024-01-24T02:42:36.401Z,96102.22
2024-01-24T02:45:03.554Z,96075.28
2024-01-24T02:47:30.574Z,96093.69
2024-01-24T02:50:00.405Z,96089.41
2024-01-24T02:52:27.540Z,96092.28
2024-01-24T02:54:54.957Z,96068.91
2024-01-24T02:57:21.947Z,96089.75
2024-01-24T02:59:48.928Z,96085.09
2024-01-24T03:02:15.834Z,96080.22
2024-01-24T03:04:42.895Z,96061.44
2024-01-24T03:07:10.088Z,96056.94
2024-01-24T03:09:37.080Z,96048.09
2024-01-24T03:12:04.335Z,96052.06
2024-01-24T03:14:31.230Z,96058.09
2024-01-24T03:16:58.211Z,96031.78
2024-01-24T03:19:26.366Z,96038.66
2024-01-24T03:21:54.037Z,96032.25
2024-01-24T03:24:21.121Z,96029.69
2024-01-24T03:26:48.148Z,96032.72
2024-01-24T03:29:15.099Z,96027.03
2024-01-24T03:31:45.013Z,96033.78
2024-01-24T03:34:12.784Z,96032.03
2024-01-24T03:36:39.973Z,96024.34
2024-01-24T03:39:07.237Z,96011.97
2024-01-24T03:41:34.239Z,96019.56
2024-01-24T03:44:01.202Z,96022.69
2024-01-24T03:46:28.199Z,96000.09
2024-01-24T03:48:55.200Z,96000.38
2024-01-24T03:51:22.276Z,96004.78
2024-01-24T03:53:49.227Z,95989.41
2024-01-24T03:56:16.849Z,95977.19
2024-01-24T03:58:43.807Z,95984.41
2024-01-24T04:01:12.089Z,95972.19
2024-01-24T04:03:39.374Z,95980.91
2024-01-24T04:06:06.570Z,95976.94
2024-01-24T04:08:33.543Z,95977.31
2024-01-24T04:11:00.492Z,95969.03
2024-01-24T04:13:27.428Z,95969.50
2024-01-24T04:15:54.517Z,95975.31
2024-01-24T04:18:21.528Z,95970.78
2024-01-24T04:20:48.542Z,95959.97
2024-01-24T04:23:15.573Z,95963.47
2024-01-24T04:25:42.608Z,95958.69
2024-01-24T04:28:10.488Z,95949.47
2024-01-24T04:30:37.599Z,95953.75
2024-01-24T04:33:05.469Z,95936.81
2024-01-24T04:35:32.910Z,95941.94
2024-01-24T04:37:59.975Z,95930.75
2024-01-24T04:40:26.924Z,95931.91
2024-01-24T04:42:53.962Z,95923.06
2024-01-24T04:45:20.987Z,95923.25
2024-01-24T04:47:48.019Z,95926.63
2024-01-24T04:50:15.342Z,95934.72
2024-01-24T04:52:42.295Z,95908.41
2024-01-24T04:55:13.442Z,95924.59
2024-01-24T04:57:41.513Z,95910.97
2024-01-24T05:00:09.779Z,95930.50
2024-01-24T05:02:38.760Z,95904.22
2024-01-24T05:05:09.597Z,95922.34
2024-01-24T05:07:37.169Z,95906.78
2024-01-24T05:10:05.787Z,95903.06
2024-01-24T05:12:33.260Z,95898.38
2024-01-24T05:15:00.326Z,95897.94
2024-01-24T05:17:27.460Z,95896.66
2024-01-24T05:19:55.632Z,95904.09
2024-01-24T05:22:22.893Z,95891.97
2024-01-24T05:24:50.034Z,95888.38
2024-01-24T05:27:17.385Z,95870.44
2024-01-24T05:29:47.014Z,95861.56
2024-01-24T05:32:14.690Z,95871.81
2024-01-24T05:34:41.917Z,95860.50
2024-01-24T05:37:09.082Z,95850.59
2024-01-24T05:39:36.134Z,95862.47
2024-01-24T05:42:03.240Z,95848.50
2024-01-24T05:44:30.194Z,95861.44
2024-01-24T05:46:57.422Z,95858.75
2024-01-24T05:49:24.430Z,95851.19
2024-01-24T05:51:51.470Z,95862.94
2024-01-24T05:54:18.615Z,95856.88
2024-01-24T05:56:45.951Z,95857.59
2024-01-24T05:59:15.166Z,95853.66
2024-01-24T06:01:44.221Z,95867.00
2024-01-24T06:04:11.376Z,95854.31
2024-01-24T06:06:38.597Z,95848.38
2024-01-24T06:09:05.720Z,95859.56
2024-01-24T06:11:32.853Z,95873.19
2024-01-24T06:13:59.920Z,95877.63
2024-01-24T06:16:26.990Z,95824.75
2024-01-24T06:18:54.179Z,95853.19
2024-01-24T06:21:21.799Z,95824.75
2024-01-24T06:23:48.869Z,95838.97
2024-01-24T06:26:16.133Z,95845.22
2024-01-24T06:28:43.059Z,95846.59
2024-01-24T06:31:10.402Z,95844.19
2024-01-24T06:33:37.532Z,95864.72
2024-01-24T06:36:04.854Z,95870.47
2024-01-24T06:38:31.969Z,95884.28
2024-01-24T06:40:58.938Z,95854.69
2024-01-24T06:43:26.329Z,95873.25
2024-01-24T06:45:53.285Z,95888.66
2024-01-24T06:48:20.396Z,95873.81
2024-01-24T06:50:47.420Z,95878.94
2024-01-24T06:53:16.070Z,95869.09
2024-01-24T06:55:43.229Z,95879.34
2024-01-24T06:58:10.461Z,95875.72
2024-01-24T07:00:37.685Z,95864.44
2024-01-24T07:03:05.191Z,95846.59
2024-01-24T07:05:32.182Z,95868.00
2024-01-24T07:07:59.249Z,95852.88
2024-01-24T07:10:26.232Z,95835.59
2024-01-24T07:12:53.439Z,95839.97
2024-01-24T07:15:20.589Z,95858.00
2024-01-24T07:17:48.020Z,95852.06
2024-01-24T07:20:17.114Z,95851.97
2024-01-24T07:22:44.147Z,95865.69
2024-01-24T07:25:11.345Z,95847.41
2024-01-24T07:27:38.555Z,95855.22
2024-01-24T07:30:06.353Z,95849.72
2024-01-24T07:32:33.713Z,95832.59
2024-01-24T07:35:01.125Z,95848.47
2024-01-24T07:37:28.415Z,95832.28
2024-01-24T07:39:56.129Z,95836.47
2024-01-24T07:42:23.171Z,95838.16
2024-01-24T07:44:50.242Z,95841.84
2024-01-24T07:47:21.471Z,95834.75
2024-01-24T07:49:48.898Z,95821.47
2024-01-24T07:52:25.386Z,95830.69
2024-01-24T07:55:01.456Z,95833.53
2024-01-24T07:57:28.999Z,95816.66
2024-01-24T07:59:57.136Z,95798.66
2024-01-24T08:02:24.789Z,95793.22
2024-01-24T08:04:52.274Z,95772.38
2024-01-24T08:07:20.379Z,95774.56
2024-01-24T08:09:48.101Z,95782.00
2024-01-24T08:12:16.912Z,95786.72
2024-01-24T08:14:44.114Z,95776.22
2024-01-24T08:17:15.575Z,95783.13
2024-01-24T08:19:42.746Z,95757.16
2024-01-24T08:22:09.886Z,95777.69
2024-01-24T08:24:37.101Z,95771.88
2024-01-24T08:27:04.452Z,95777.00
2024-01-24T08:29:36.900Z,95752.41
2024-01-24T08:32:06.692Z,95785.94
2024-01-24T08:34:36.625Z,95770.41
2024-01-24T08:37:04.137Z,95767.16
2024-01-24T08:39:31.194Z,95766.34
2024-01-24T08:41:58.653Z,95777.84
2024-01-24T08:44:25.616Z,95772.72
2024-01-24T08:46:52.573Z,95749.75
2024-01-24T08:49:19.882Z,95768.38
2024-01-24T08:51:47.063Z,95741.59
2024-01-24T08:54:14.232Z,95743.91
2024-01-24T08:56:41.727Z,95761.09
2024-01-24T08:59:08.778Z,95757.03
2024-01-24T09:01:36.014Z,95712.13
2024-01-24T09:04:03.409Z,95749.19
2024-01-24T09:06:30.814Z,95720.94
2024-01-24T09:08:58.115Z,95724.72
2024-01-24T09:11:31.749Z,95698.34
2024-01-24T09:14:05.148Z,95735.53
2024-01-24T09:16:32.302Z,95703.44
2024-01-24T09:18:59.854Z,95676.44
2024-01-24T09:21:27.165Z,95662.91
2024-01-24T09:23:54.236Z,95668.03
2024-01-24T09:26:22.608Z,95647.63
2024-01-24T09:28:49.644Z,95678.28
2024-01-24T09:31:17.193Z,95643.25
2024-01-24T09:33:44.393Z,95655.69
2024-01-24T09:36:11.492Z,95657.69
2024-01-24T09:38:38.650Z,95646.97
2024-01-24T09:41:12.370Z,95653.81
2024-01-24T09:43:40.213Z,95659.22
2024-01-24T09:46:11.239Z,95652.09
2024-01-24T09:48:38.282Z,95647.44
2024-01-24T09:51:05.591Z,95632.56
2024-01-24T09:53:33.751Z,95645.78
2024-01-24T09:56:03.100Z,95660.22
2024-01-24T09:58:30.140Z,95655.00
2024-01-24T10:00:58.047Z,95626.50
2024-01-24T10:03:25.867Z,95593.38
2024-01-24T10:05:53.993Z,95602.53
2024-01-24T10:08:21.046Z,95605.25
2024-01-24T10:10:48.003Z,95626.97
2024-01-24T10:13:15.248Z,95598.06
2024-01-24T10:15:42.281Z,95585.09
2024-01-24T10:18:09.532Z,95606.81
2024-01-24T10:20:37.232Z,95613.16
2024-01-24T10:23:05.402Z,95599.97
2024-01-24T10:25:32.410Z,95577.09
2024-01-24T10:27:59.549Z,95561.31
2024-01-24T10:30:28.074Z,95540.09
2024-01-24T10:32:55.079Z,95521.53
2024-01-24T10:35:22.400Z,95528.16
2024-01-24T10:37:49.573Z,95512.28
2024-01-24T10:40:17.826Z,95531.41
2024-01-24T10:42:46.142Z,95509.88
2024-01-24T10:45:15.102Z,95517.91
2024-01-24T10:47:43.108Z,95482.31
2024-01-24T10:50:11.659Z,95514.00
2024-01-24T10:52:40.153Z,95482.72
2024-01-24T10:55:09.114Z,95456.66
2024-01-24T10:57:36.959Z,95481.19
2024-01-24T11:00:12.864Z,95501.16
2024-01-24T11:02:45.064Z,95476.13
2024-01-24T11:05:23.758Z,95472.91
2024-01-24T11:08:02.993Z,95478.25
2024-01-24T11:10:37.632Z,95496.16
2024-01-24T11:13:06.433Z,95476.00
2024-01-24T11:15:34.381Z,95498.28
2024-01-24T11:18:24.067Z,95479.88
2024-01-24T11:21:01.414Z,95470.63
2024-01-24T11:23:47.237Z,95455.88
2024-01-24T11:26:34.171Z,95457.97
2024-01-24T11:29:14.265Z,95466.16
2024-01-24T11:31:43.590Z,95481.44
2024-01-24T11:34:14.894Z,95466.88
2024-01-24T11:36:48.748Z,95435.31
2024-01-24T11:39:41.294Z,95440.75
2024-01-24T11:42:37.998Z,95418.59
2024-01-24T11:45:18.506Z,95432.28
2024-01-24T11:47:46.110Z,95413.13
2024-01-24T11:50:13.718Z,95405.13
2024-01-24T11:52:41.678Z,95330.53
2024-01-24T11:55:09.156Z,95279.91
2024-01-24T11:57:36.333Z,95225.94
2024-01-24T12:00:07.584Z,95234.41
2024-01-24T12:02:35.652Z,95231.06
2024-01-24T12:05:03.160Z,95191.66
2024-01-24T12:07:30.338Z,95142.06
2024-01-24T12:09:57.285Z,95069.25
2024-01-24T12:12:24.902Z,95015.84
2024-01-24T12:14:54.742Z,94978.44
2024-01-24T12:17:22.753Z,94969.03
2024-01-24T12:19:49.951Z,94960.28
2024-01-24T12:22:17.471Z,94994.06
2024-01-24T12:24:44.679Z,95013.06
2024-01-24T12:27:12.130Z,95008.25
2024-01-24T12:29:40.340Z,94877.94
2024-01-24T12:32:08.380Z,94779.38
2024-01-24T12:34:35.760Z,94796.91
2024-01-24T12:37:03.142Z,94817.09
2024-01-24T12:39:33.444Z,94861.31
2024-01-24T12:42:01.607Z,94882.75
2024-01-24T12:44:29.004Z,94904.47
2024-01-24T12:47:00.242Z,94859.78
2024-01-24T12:49:28.116Z,94887.00
2024-01-24T12:51:55.905Z,94886.81
2024-01-24T12:54:23.377Z,94876.38
2024-01-24T12:56:51.904Z,94895.38
2024-01-24T12:59:19.370Z,94867.34
2024-01-24T13:01:46.671Z,94876.22
2024-01-24T13:04:13.957Z,94882.63
2024-01-24T13:06:42.017Z,94861.81
2024-01-24T13:09:10.336Z,94846.25
2024-01-24T13:11:37.646Z,94841.34
2024-01-24T13:14:04.848Z,94832.28
2024-01-24T13:16:32.028Z,94736.09
2024-01-24T13:18:59.102Z,94718.75
2024-01-24T13:21:26.219Z,94766.94
2024-01-24T13:23:53.359Z,94705.50
2024-01-24T13:26:20.449Z,94658.59
2024-01-24T13:28:47.478Z,94679.56
2024-01-24T13:31:15.469Z,94639.00
2024-01-24T13:33:45.390Z,94690.28
2024-01-24T13:36:12.882Z,94706.31
2024-01-24T13:38:40.647Z,94656.78
2024-01-24T13:41:08.107Z,94641.66
2024-01-24T13:43:35.201Z,94614.59
2024-01-24T13:46:02.215Z,94621.31
2024-01-24T13:48:29.368Z,94568.25
2024-01-24T13:50:59.584Z,94530.13
2024-01-24T13:53:27.310Z,94520.06
2024-01-24T13:55:54.323Z,94527.59
2024-01-24T13:58:21.689Z,94477.84
2024-01-24T14:00:49.688Z,94489.25
2024-01-24T14:03:16.860Z,94529.88
2024-01-24T14:05:43.904Z,94518.13
2024-01-24T14:08:11.085Z,94467.66
2024-01-24T14:10:38.107Z,94487.75
2024-01-24T14:13:05.255Z,94496.75
2024-01-24T14:15:35.058Z,94508.50
2024-01-24T14:18:04.710Z,94490.50
2024-01-24T14:20:32.052Z,94505.66
2024-01-24T14:22:59.015Z,94521.25
2024-01-24T14:25:26.041Z,94523.28
2024-01-24T14:27:53.178Z,94559.69
2024-01-24T14:30:20.648Z,94568.97
2024-01-24T14:32:47.772Z,94540.25
2024-01-24T14:35:19.082Z,94546.84
2024-01-24T14:37:47.554Z,94528.38
2024-01-24T14:40:17.538Z,94537.69
2024-01-24T14:42:44.708Z,94566.38
2024-01-24T14:45:11.702Z,94582.03
2024-01-24T14:47:39.072Z,94584.88
2024-01-24T14:50:09.888Z,94556.28
2024-01-24T14:52:37.263Z,94583.75
2024-01-24T14:55:04.765Z,94568.72
2024-01-24T14:57:33.650Z,94526.38
2024-01-24T15:00:01.341Z,94555.22
2024-01-24T15:02:28.618Z,94560.00
2024-01-24T15:04:55.984Z,94554.78
2024-01-24T15:07:25.161Z,94564.31
2024-01-24T15:09:52.181Z,94583.47
2024-01-24T15:12:19.105Z,94570.81
2024-01-24T15:14:46.036Z,94605.09
2024-01-24T15:17:12.955Z,94588.28
2024-01-24T15:19:47.718Z,94614.25
2024-01-24T15:22:20.905Z,94654.34
2024-01-24T15:24:50.110Z,94696.66
2024-01-24T15:27:21.590Z,94674.75
2024-01-24T15:29:49.721Z,94729.75
2024-01-24T15:32:17.153Z,94742.75
2024-01-24T15:34:44.460Z,94788.13
2024-01-24T15:37:11.776Z,94832.63
2024-01-24T15:39:39.895Z,94875.69
2024-01-24T15:42:11.501Z,94895.31
2024-01-24T15:44:38.716Z,94986.63
2024-01-24T15:47:05.993Z,95019.75
2024-01-24T15:49:33.209Z,95048.63
2024-01-24T15:52:00.356Z,94995.06
2024-01-24T15:54:28.280Z,95018.97
2024-01-24T15:56:55.374Z,95022.53
2024-01-24T15:59:22.327Z,95068.44
2024-01-24T16:01:50.456Z,95085.66
2024-01-24T16:04:19.135Z,95085.19
2024-01-24T16:06:46.369Z,95112.44
2024-01-24T16:09:13.565Z,95140.47
2024-01-24T16:11:40.877Z,95167.75
2024-01-24T16:14:09.031Z,95174.91
2024-01-24T16:16:36.368Z,95182.53
2024-01-24T16:19:03.330Z,95190.09
2024-01-24T16:21:30.519Z,95213.13
2024-01-24T16:23:57.530Z,95200.03
2024-01-24T16:26:24.496Z,95189.81
2024-01-24T16:28:51.463Z,95193.03
2024-01-24T16:31:19.410Z,95191.88
2024-01-24T16:33:46.508Z,95193.81
2024-01-24T16:36:13.742Z,95194.13
2024-01-24T16:38:40.890Z,95210.09
2024-01-24T16:41:09.737Z,95205.81
2024-01-24T16:43:38.979Z,95231.00
2024-01-24T16:46:06.961Z,95234.63
2024-01-24T16:48:34.278Z,95235.88
2024-01-24T16:51:01.704Z,95261.59
2024-01-24T16:53:34.953Z,95261.88
2024-01-24T16:56:02.028Z,95271.69
2024-01-24T16:58:29.006Z,95265.22
2024-01-24T17:00:56.215Z,95266.31
2024-01-24T17:03:23.239Z,95277.19
2024-01-24T17:05:50.410Z,95300.94
2024-01-24T17:08:17.593Z,95301.22
2024-01-24T17:10:44.635Z,95287.63
2024-01-24T17:13:11.604Z,95301.44
2024-01-24T17:15:38.641Z,95331.00
2024-01-24T17:18:06.236Z,95355.25
2024-01-24T17:20:33.947Z,95329.59
2024-01-24T17:23:01.104Z,95308.59
2024-01-24T17:25:29.806Z,95241.22
2024-01-24T17:27:57.861Z,95328.47
2024-01-24T17:30:25.022Z,95357.09
2024-01-24T17:32:52.060Z,95373.66
2024-01-24T17:35:19.032Z,95379.03
2024-01-24T17:37:46.106Z,95390.03
2024-01-24T17:40:13.498Z,95383.94
2024-01-24T17:42:40.860Z,95389.19
2024-01-24T17:45:08.313Z,95359.69
2024-01-24T17:47:36.366Z,95352.06
2024-01-24T17:50:04.239Z,95332.09
2024-01-24T17:52:31.402Z,95356.47
2024-01-24T17:55:01.902Z,95376.88
2024-01-24T17:57:29.318Z,95359.88
2024-01-24T17:59:56.687Z,95355.06
2024-01-24T18:02:24.270Z,95366.53
2024-01-24T18:04:51.607Z,95380.44
2024-01-24T18:07:21.171Z,95368.38
2024-01-24T18:09:49.728Z,95370.81
2024-01-24T18:12:17.223Z,95374.25
2024-01-24T18:14:44.199Z,95392.34
2024-01-24T18:17:11.487Z,95407.53
2024-01-24T18:19:38.549Z,95435.34
2024-01-24T18:22:05.838Z,95424.34
2024-01-24T18:24:32.808Z,95421.28
2024-01-24T18:26:59.761Z,95458.91
2024-01-24T18:29:26.671Z,95449.69
2024-01-24T18:31:53.652Z,95451.94
2024-01-24T18:34:21.143Z,95453.72
2024-01-24T18:36:48.229Z,95460.16
2024-01-24T18:39:15.275Z,95469.19
2024-01-24T18:41:42.582Z,95460.78
2024-01-24T18:44:09.507Z,95479.78
2024-01-24T18:46:36.529Z,95500.47
2024-01-24T18:49:04.958Z,95510.78
2024-01-24T18:51:32.405Z,95525.16
2024-01-24T18:53:59.468Z,95539.59
2024-01-24T18:56:28.166Z,95566.00
2024-01-24T18:58:55.366Z,95580.34
2024-01-24T19:01:23.397Z,95561.66
2024-01-24T19:03:56.163Z,95519.00
2024-01-24T19:06:26.700Z,95536.91
2024-01-24T19:08:53.981Z,95502.13
2024-01-24T19:11:21.036Z,95480.50
2024-01-24T19:13:48.243Z,95465.84
2024-01-24T19:16:15.335Z,95444.59
2024-01-24T19:18:44.351Z,95417.13
2024-01-24T19:21:11.442Z,95429.81
2024-01-24T19:23:38.404Z,95414.38
2024-01-24T19:26:05.422Z,95408.97
2024-01-24T19:28:32.566Z,95396.19
2024-01-24T19:31:03.824Z,95420.44
2024-01-24T19:33:30.940Z,95404.66
2024-01-24T19:35:57.988Z,95413.44
2024-01-24T19:38:24.879Z,95421.44
2024-01-24T19:40:51.995Z,95457.72
2024-01-24T19:43:19.714Z,95478.75
2024-01-24T19:45:46.770Z,95471.72
2024-01-24T19:48:14.641Z,95463.22
2024-01-24T19:50:41.825Z,95484.38
2024-01-24T19:53:12.736Z,95459.44
2024-01-24T19:55:42.498Z,95430.88
2024-01-24T19:58:09.596Z,95435.56
2024-01-24T20:00:38.074Z,95463.63
2024-01-24T20:03:05.268Z,95476.28
2024-01-24T20:05:32.325Z,95439.34
2024-01-24T20:07:59.366Z,95411.94
2024-01-24T20:10:26.530Z,95403.78
2024-01-24T20:12:53.929Z,95428.50
2024-01-24T20:15:22.576Z,95415.34
2024-01-24T20:17:49.670Z,95379.63
2024-01-24T20:20:18.037Z,95418.00
2024-01-24T20:22:45.025Z,95376.09
2024-01-24T20:25:11.987Z,95356.19
2024-01-24T20:27:39.218Z,95381.78
2024-01-24T20:30:06.893Z,95372.84
2024-01-24T20:32:40.100Z,95405.63
2024-01-24T20:35:12.528Z,95463.41
2024-01-24T20:37:39.640Z,95459.53
2024-01-24T20:40:07.320Z,95470.78
2024-01-24T20:42:34.448Z,95474.06
2024-01-24T20:45:01.632Z,95507.09
2024-01-24T20:47:28.717Z,95502.25
2024-01-24T20:49:56.722Z,95520.59
2024-01-24T20:52:24.021Z,95506.22
2024-01-24T20:54:50.879Z,95520.16
2024-01-24T20:57:18.523Z,95534.28
2024-01-24T20:59:45.510Z,95530.25
2024-01-24T21:02:13.968Z,95523.81
2024-01-24T21:04:41.114Z,95534.56
2024-01-24T21:07:09.033Z,95548.25
2024-01-24T21:09:36.098Z,95558.88
2024-01-24T21:12:03.177Z,95563.47
2024-01-24T21:14:30.109Z,95539.94
2024-01-24T21:16:57.069Z,95538.88
2024-01-24T21:19:25.825Z,95551.00
2024-01-24T21:21:53.489Z,95537.44
2024-01-24T21:24:20.551Z,95531.25
2024-01-24T21:26:48.401Z,95536.56
2024-01-24T21:29:15.452Z,95563.44
2024-01-24T21:31:49.088Z,95530.19
2024-01-24T21:34:16.242Z,95547.13
2024-01-24T21:36:47.883Z,95520.25
2024-01-24T21:39:16.411Z,95548.03
2024-01-24T21:41:43.278Z,95539.78
2024-01-24T21:44:10.183Z,95526.44
2024-01-24T21:46:37.108Z,95536.63
2024-01-24T21:49:04.083Z,95544.09
2024-01-24T21:51:31.957Z,95533.22
2024-01-24T21:53:59.107Z,95536.66
2024-01-24T21:56:26.040Z,95531.91
2024-01-24T21:58:59.300Z,95525.25
2024-01-24T22:01:26.326Z,95515.75
2024-01-24T22:03:53.389Z,95533.22
2024-01-24T22:06:20.341Z,95525.00
2024-01-24T22:08:47.290Z,95531.97
2024-01-24T22:11:15.547Z,95514.09
2024-01-24T22:13:42.546Z,95521.09
2024-01-24T22:16:09.600Z,95520.81
2024-01-24T22:18:41.215Z,95473.41
2024-01-24T22:21:14.726Z,95503.59
2024-01-24T22:23:41.632Z,95494.59
2024-01-24T22:26:08.600Z,95497.31
2024-01-24T22:28:35.558Z,95484.34
2024-01-24T22:31:02.675Z,95453.28
2024-01-24T22:33:29.885Z,95452.94
2024-01-24T22:35:57.016Z,95461.97
2024-01-24T22:38:24.626Z,95457.72
2024-01-24T22:40:51.729Z,95466.75
2024-01-24T22:43:19.025Z,95469.69
2024-01-24T22:45:46.480Z,95466.22
2024-01-24T22:48:13.747Z,95458.91
2024-01-24T22:50:41.478Z,95452.91
2024-01-24T22:53:08.725Z,95460.19
2024-01-24T22:55:35.932Z,95448.19
2024-01-24T22:58:03.732Z,95467.91
2024-01-24T23:00:31.100Z,95465.06
2024-01-24T23:02:58.228Z,95469.34
2024-01-24T23:05:25.360Z,95474.72
2024-01-24T23:07:52.518Z,95487.34
2024-01-24T23:10:20.855Z,95485.13
2024-01-24T23:12:47.946Z,95488.47
2024-01-24T23:15:15.039Z,95472.63
2024-01-24T23:17:42.348Z,95490.78
2024-01-24T23:20:10.618Z,95488.59
2024-01-24T23:22:37.638Z,95479.50
2024-01-24T23:25:06.066Z,95482.44
2024-01-24T23:27:32.998Z,95483.47
2024-01-24T23:29:59.928Z,95456.94
2024-01-24T23:32:28.263Z,95456.56
2024-01-24T23:34:55.615Z,95425.53
2024-01-24T23:37:22.765Z,95403.78
2024-01-24T23:39:49.935Z,95416.84
2024-01-24T23:42:17.260Z,95418.84
2024-01-24T23:44:44.279Z,95393.16
2024-01-24T23:47:11.270Z,95412.75
2024-01-24T23:49:39.008Z,95426.13
2024-01-24T23:52:06.677Z,95427.06
2024-01-24T23:54:33.865Z,95408.19
2024-01-24T23:57:00.810Z,95401.25
2024-01-24T23:59:27.780Z,95409.50
